Canby, MN

7:25 AM CST on February 22, 2017 (GMT -0600)
Canby

Weather History for KCNB - February, 2013

Change the Weather History Date:

Wednesday, February 27, 2013

  Actual Average (KMML) Record (KMML)
Temperature  
Mean Temperature 22 °F -  
Max Temperature 29 °F 34 °F 59 °F (2016)
Min Temperature 15 °F 19 °F -18 °F (1962)
Degree Days  
Heating Degree Days 43    
Moisture  
Dew Point 19 °F    
Average Humidity 86    
Maximum Humidity 96    
Minimum Humidity 72    
Precipitation  
Precipitation 0.00 in - - ()
Sea Level Pressure  
Sea Level Pressure 30.04 in    
Wind  
Wind Speed 14 mph (NW)    
Max Wind Speed 23 mph    
Max Gust Speed 31 mph    
Visibility 9 miles    
Events      
Averages and records for this station are not official NWS values.
T = Trace of Precipitation, MM = Missing Value Source: NWS Daily Summary

Daily Weather History Graph

Daily Weather History Graph

Search for Another Location

Airport or City:

Trip Planner

Search our weather history database for the weather conditions in past years. The results will help you decide how hot, cold, wet, or windy it might be!

Date:

Astronomy

Feb. 27, 2013 Rise Set
Actual Time 7:05 AM CST 6:10 PM CST
Civil Twilight 6:36 AM CST 6:39 PM CST
Nautical Twilight 6:02 AM CST 7:13 PM CST
Astronomical Twilight 5:28 AM CST 7:47 PM CST
Moon 8:41 PM CST (2/27) 7:34 AM CST (2/27)
Length of Visible Light 12h 03m
Length of Day
11h 04m
Waning Gibbous, 96% of the Moon is Illuminated
Feb 27
Waning Gibbous
Mar 4
Last Quarter
Mar 11
New
Mar 19
First Quarter
Mar 27
Full

Hourly Weather History & Observations

Time (CST) Temp. Windchill Dew Point Humidity Pressure Visibility Wind Dir Wind Speed Gust Speed Precip Events Conditions
12:16 AM 17.6 °F 6.4 °F 16.7 °F 96% 29.99 in 4.0 mi NW 9.2 mph - N/A   Scattered Clouds
12:36 AM 17.4 °F 5.4 °F 16.5 °F 96% 29.99 in 4.0 mi NW 10.4 mph - N/A   Scattered Clouds
12:56 AM 17.1 °F 4.3 °F 15.8 °F 95% 29.99 in 5.0 mi NW 11.5 mph - N/A   Clear
1:15 AM 16.9 °F 5.5 °F 15.8 °F 96% 29.99 in 5.0 mi NW 9.2 mph - N/A   Clear
1:36 AM 16.7 °F 5.3 °F 15.6 °F 96% 29.99 in 5.0 mi NW 9.2 mph - N/A   Clear
1:56 AM 16.5 °F 4.3 °F 15.4 °F 96% 29.99 in 5.0 mi NW 10.4 mph - N/A   Clear
2:16 AM 16.5 °F 5.1 °F 15.3 °F 95% 29.99 in 5.0 mi NW 9.2 mph - N/A   Clear
2:36 AM 15.8 °F 4.2 °F 14.9 °F 96% 29.99 in 5.0 mi NW 9.2 mph - N/A   Clear
2:56 AM 15.8 °F 3.4 °F 14.7 °F 95% 30.00 in 5.0 mi NW 10.4 mph - N/A   Clear
3:16 AM 15.6 °F 2.5 °F 14.5 °F 95% 29.99 in 7.0 mi NW 11.5 mph - N/A   Clear
3:36 AM 15.6 °F 2.5 °F 14.5 °F 95% 29.99 in 7.0 mi NW 11.5 mph - N/A   Clear
3:56 AM 15.6 °F 3.2 °F 14.5 °F 95% 29.99 in 10.0 mi NW 10.4 mph - N/A   Clear
4:16 AM 16.2 °F 3.2 °F 14.9 °F 95% 29.99 in 10.0 mi NW 11.5 mph - N/A   Clear
4:36 AM 16.3 °F 3.4 °F 15.1 °F 95% 29.99 in 10.0 mi NW 11.5 mph - N/A   Clear
4:55 AM 16.7 °F 3.2 °F 15.3 °F 94% 29.99 in 10.0 mi NW 12.7 mph - N/A   Clear
5:16 AM 17.1 °F 5.0 °F 14.9 °F 91% 29.99 in 10.0 mi NW 10.4 mph - N/A   Clear
5:36 AM 18.0 °F 5.4 °F 14.7 °F 87% 29.99 in 10.0 mi NW 11.5 mph - N/A   Clear
5:55 AM 18.7 °F 6.3 °F 14.7 °F 85% 30.00 in 10.0 mi NW 11.5 mph - N/A   Clear
6:16 AM 19.9 °F 6.7 °F 15.4 °F 83% 30.00 in 10.0 mi NW 13.8 mph 18.4 mph N/A   Clear
6:56 AM 20.3 °F 7.2 °F 16.0 °F 83% 30.01 in 10.0 mi NW 13.8 mph - N/A   Clear
7:16 AM 20.3 °F 6.6 °F 16.3 °F 85% 30.01 in 10.0 mi NW 15.0 mph - N/A   Clear
7:36 AM 20.3 °F 6.1 °F 16.5 °F 85% 30.02 in 10.0 mi NNW 16.1 mph 20.7 mph N/A   Clear
7:56 AM 20.1 °F 5.0 °F 16.5 °F 86% 30.03 in 10.0 mi NW 18.4 mph 23.0 mph N/A   Clear
8:16 AM 20.3 °F 6.6 °F 16.7 °F 86% 30.03 in 10.0 mi NW 15.0 mph 21.9 mph N/A   Clear
8:36 AM 20.3 °F 7.2 °F 16.7 °F 86% 30.03 in 10.0 mi NW 13.8 mph 18.4 mph N/A   Clear
8:56 AM 21.0 °F 7.6 °F 16.5 °F 83% 30.04 in 10.0 mi NW 15.0 mph 19.6 mph N/A   Clear
9:16 AM 21.9 °F 7.3 °F 16.7 °F 80% 30.04 in 10.0 mi NW 18.4 mph 25.3 mph N/A   Clear
9:35 AM 22.6 °F 9.6 °F 17.1 °F 79% 30.05 in 10.0 mi NW 15.0 mph 23.0 mph N/A   Clear
9:56 AM 23.5 °F 10.8 °F 17.6 °F 78% 30.05 in 10.0 mi NW 15.0 mph - N/A   Clear
10:16 AM 24.3 °F 11.7 °F 18.1 °F 77% 30.05 in 10.0 mi NW 15.0 mph 23.0 mph N/A   Clear
10:36 AM 25.2 °F 12.0 °F 18.3 °F 75% 30.05 in 10.0 mi NW 17.3 mph - N/A   Clear
10:56 AM 26.4 °F 14.0 °F 19.0 °F 74% 30.05 in 10.0 mi NW 16.1 mph - N/A   Clear
11:16 AM 27.3 °F 14.8 °F 20.1 °F 74% 30.04 in 10.0 mi NW 17.3 mph 23.0 mph N/A   Clear
11:35 AM 28.2 °F 16.3 °F 21.0 °F 74% 30.05 in 10.0 mi NW 16.1 mph 21.9 mph N/A   Clear
11:56 AM 28.8 °F 16.6 °F 21.2 °F 73% 30.05 in 10.0 mi NW 17.3 mph 21.9 mph N/A   Clear
12:16 PM 29.3 °F 17.3 °F 21.2 °F 72% 30.05 in 10.0 mi NNW 17.3 mph - N/A   Clear
12:36 PM 29.1 °F 16.7 °F 21.6 °F 73% 30.04 in 10.0 mi NW 18.4 mph 24.2 mph N/A   Clear
12:56 PM 29.3 °F 16.2 °F 21.7 °F 73% 30.04 in 10.0 mi NW 20.7 mph - N/A   Clear
1:16 PM 29.3 °F 17.3 °F 21.9 °F 74% 30.04 in 10.0 mi NW 17.3 mph 21.9 mph N/A   Clear
1:35 PM 29.5 °F 18.0 °F 22.6 °F 76% 30.04 in 10.0 mi NW 16.1 mph 25.3 mph N/A   Clear
1:56 PM 29.8 °F 18.0 °F 23.7 °F 78% 30.04 in 10.0 mi NNW 17.3 mph 23.0 mph N/A   Clear
2:16 PM 29.1 °F 17.5 °F 22.6 °F 77% 30.04 in 10.0 mi NW 16.1 mph 25.3 mph N/A   Clear
2:36 PM 28.9 °F 16.5 °F 22.6 °F 77% 30.03 in 10.0 mi NNW 18.4 mph 24.2 mph N/A   Clear
2:56 PM 28.6 °F 16.4 °F 22.6 °F 78% 30.03 in 10.0 mi NW 17.3 mph - N/A   Clear
3:16 PM 27.3 °F 15.6 °F 22.5 °F 82% 30.04 in 10.0 mi NW 15.0 mph 27.6 mph N/A   Clear
3:36 PM 26.1 °F 12.0 °F 21.6 °F 83% 30.05 in 10.0 mi NNW 20.7 mph 26.5 mph N/A   Clear
3:56 PM 25.7 °F 12.3 °F 21.9 °F 86% 30.05 in 10.0 mi NNW 18.4 mph 21.9 mph N/A   Clear
4:16 PM 26.1 °F 13.1 °F 21.9 °F 84% 30.05 in 10.0 mi NW 17.3 mph 21.9 mph N/A   Clear
4:36 PM 26.4 °F 13.2 °F 22.1 °F 84% 30.05 in 10.0 mi NW 18.4 mph 25.3 mph N/A   Clear
4:55 PM 26.2 °F 14.2 °F 21.9 °F 84% 30.05 in 10.0 mi NW 15.0 mph 26.5 mph N/A   Clear
5:16 PM 26.2 °F 13.0 °F 22.1 °F 84% 30.06 in 10.0 mi NW 18.4 mph 26.5 mph N/A   Clear
5:36 PM 26.2 °F 13.4 °F 22.3 °F 85% 30.05 in 10.0 mi NW 17.3 mph 24.2 mph N/A   Clear
5:56 PM 25.9 °F 11.7 °F 22.6 °F 88% 30.06 in 10.0 mi NNW 20.7 mph 27.6 mph N/A   Scattered Clouds
6:16 PM 26.4 °F 11.8 °F 23.2 °F 88% 30.06 in 10.0 mi NW 23.0 mph 31.1 mph N/A   Overcast
6:36 PM 26.2 °F 12.2 °F 23.5 °F 90% 30.08 in 10.0 mi NNW 20.7 mph 27.6 mph N/A   Overcast
6:55 PM 26.4 °F 12.1 °F 23.7 °F 90% 30.08 in 10.0 mi NNW 21.9 mph 28.8 mph N/A   Overcast
7:16 PM 26.6 °F 13.1 °F 23.9 °F 90% 30.08 in 10.0 mi NNW 19.6 mph 28.8 mph N/A   Overcast
7:36 PM 26.6 °F 12.4 °F 23.9 °F 90% 30.09 in 10.0 mi NNW 21.9 mph 28.8 mph N/A   Overcast
8:16 PM 26.6 °F 12.7 °F 23.9 °F 90% 30.10 in 10.0 mi NNW 20.7 mph 28.8 mph N/A   Overcast
8:36 PM 26.2 °F 13.0 °F 23.7 °F 90% 30.10 in 10.0 mi NNW 18.4 mph 26.5 mph N/A   Overcast
8:56 PM 25.7 °F 10.8 °F 23.7 °F 92% 30.11 in 10.0 mi NNW 23.0 mph 26.5 mph N/A   Overcast
9:16 PM 25.3 °F 11.4 °F 23.2 °F 91% 30.11 in 10.0 mi NNW 19.6 mph 27.6 mph N/A   Overcast
9:36 PM 25.5 °F 12.9 °F 23.9 °F 94% 30.11 in 7.0 mi NW 16.1 mph - N/A   Overcast
9:56 PM 24.8 °F 11.9 °F 23.0 °F 93% 30.11 in 10.0 mi NNW 16.1 mph 25.3 mph N/A   Overcast
10:16 PM 24.8 °F 12.4 °F 23.0 °F 93% 30.12 in 10.0 mi NNW 15.0 mph 25.3 mph N/A   Overcast
10:36 PM 24.8 °F 11.9 °F 22.8 °F 92% 30.12 in 10.0 mi NNW 16.1 mph - N/A   Overcast
10:56 PM 24.8 °F 12.4 °F 22.8 °F 92% 30.12 in 10.0 mi NNW 15.0 mph 20.7 mph N/A   Overcast
11:15 PM 24.4 °F 11.0 °F 22.1 °F 91% 30.12 in 10.0 mi NNW 17.3 mph 24.2 mph N/A   Overcast
11:36 PM 23.0 °F 9.6 °F 21.2 °F 93% 30.12 in 10.0 mi NNW 16.1 mph - N/A   Overcast
11:56 PM 22.3 °F 9.7 °F 20.5 °F 93% 30.12 in 10.0 mi NNW 13.8 mph 19.6 mph N/A   Mostly Cloudy